Terminal Aerodrome Forecast
Issued by NWS

Current Version | Previous Version | Text Only | Print | Product List | Glossary On
Versions: 1 2 3 4 5 6 7 8 9 10 11 12 13 14 15 16
007
FTUS41 KILN 240232 AAA
TAFLCK
TAF AMD
KLCK 240232Z 2403/2424 22012KT P6SM -SHRA OVC015
      TEMPO 2403/2405 3SM -SHRA OVC008
     FM240500 26012KT P6SM -SHRA OVC015
      TEMPO 2405/2407 2SM -SHRA BR OVC008
     FM240800 23010KT P6SM -SHRA OVC015
     FM241400 21012G22KT P6SM -SHRA OVC025
     FM241800 23014G27KT P6SM BKN050=

USA.gov is the U.S. government's official web portal to all federal, state and local government web resources and services.